createdAt,value
2017-09-01T00:00:36.428Z,1014.26
2017-09-01T00:01:36.353Z,1014.25
2017-09-01T00:02:36.441Z,1014.28
2017-09-01T00:03:36.321Z,1014.28
2017-09-01T00:04:36.308Z,1014.32
2017-09-01T00:05:36.288Z,1014.33
2017-09-01T00:06:36.276Z,1014.32
2017-09-01T00:07:36.251Z,1014.38
2017-09-01T00:08:36.227Z,1014.39
2017-09-01T00:09:36.220Z,1014.38
2017-09-01T00:10:36.247Z,1014.39
2017-09-01T00:11:36.179Z,1014.37
2017-09-01T00:12:36.159Z,1014.37
2017-09-01T00:13:36.139Z,1014.35
2017-09-01T00:14:36.123Z,1014.31
2017-09-01T00:15:36.102Z,1014.32
2017-09-01T00:16:36.088Z,1014.3
2017-09-01T00:17:36.069Z,1014.31
2017-09-01T00:18:36.049Z,1014.31
2017-09-01T00:19:36.039Z,1014.26
2017-09-01T00:20:36.059Z,1014.29
2017-09-01T00:21:36.002Z,1014.3
2017-09-01T00:22:36.026Z,1014.3
2017-09-01T00:23:35.961Z,1014.29
2017-09-01T00:24:35.986Z,1014.28
2017-09-01T00:25:35.920Z,1014.27
2017-09-01T00:26:35.899Z,1014.26
2017-09-01T00:27:35.883Z,1014.25
2017-09-01T00:28:35.889Z,1014.27
2017-09-01T00:29:35.878Z,1014.3
2017-09-01T00:30:35.841Z,1014.27
2017-09-01T00:31:35.810Z,1014.24
2017-09-01T00:32:35.806Z,1014.23
2017-09-01T00:33:35.777Z,1014.22
2017-09-01T00:34:35.782Z,1014.24
2017-09-01T00:35:35.736Z,1014.28
2017-09-01T00:36:35.769Z,1014.24
2017-09-01T00:37:35.711Z,1014.25
2017-09-01T00:38:35.678Z,1014.24
2017-09-01T00:39:35.664Z,1014.26
2017-09-01T00:40:35.646Z,1014.2
2017-09-01T00:41:35.624Z,1014.23
2017-09-01T00:42:35.607Z,1014.21
2017-09-01T00:43:35.596Z,1014.22
2017-09-01T00:44:35.629Z,1014.21
2017-09-01T00:45:35.559Z,1014.19
2017-09-01T00:46:35.536Z,1014.2
2017-09-01T00:47:35.520Z,1014.18
2017-09-01T00:48:35.499Z,1014.23
2017-09-01T00:49:35.481Z,1014.2
2017-09-01T00:50:35.463Z,1014.19
2017-09-01T00:51:35.449Z,1014.22
2017-09-01T00:52:35.426Z,1014.19
2017-09-01T00:53:35.409Z,1014.2
2017-09-01T00:54:35.401Z,1014.18
2017-09-01T00:55:35.374Z,1014.2
2017-09-01T00:56:35.359Z,1014.17
2017-09-01T00:57:35.338Z,1014.19
2017-09-01T00:58:35.319Z,1014.19
2017-09-01T00:59:35.308Z,1014.19
2017-09-01T01:00:35.283Z,1014.17
2017-09-01T01:01:35.265Z,1014.17
2017-09-01T01:02:35.249Z,1014.15
2017-09-01T01:03:35.229Z,1014.15
2017-09-01T01:04:35.208Z,1014.18
2017-09-01T01:05:35.192Z,1014.17
2017-09-01T01:06:35.189Z,1014.16
2017-09-01T01:07:35.157Z,1014.16
2017-09-01T01:08:35.142Z,1014.19
2017-09-01T01:09:35.129Z,1014.19
2017-09-01T01:10:35.109Z,1014.19
2017-09-01T01:11:35.092Z,1014.2
2017-09-01T01:12:35.069Z,1014.2
2017-09-01T01:13:35.048Z,1014.19
2017-09-01T01:14:35.029Z,1014.19
2017-09-01T01:15:35.013Z,1014.15
2017-09-01T01:16:34.997Z,1014.15
2017-09-01T01:17:34.978Z,1014.17
2017-09-01T01:18:34.958Z,1014.16
2017-09-01T01:19:34.938Z,1014.13
2017-09-01T01:20:34.922Z,1014.16
2017-09-01T01:21:34.906Z,1014.14
2017-09-01T01:22:34.882Z,1014.18
2017-09-01T01:23:34.870Z,1014.18
2017-09-01T01:24:34.850Z,1014.19
2017-09-01T01:25:34.830Z,1014.21
2017-09-01T01:26:34.812Z,1014.21
2017-09-01T01:27:34.795Z,1014.24
2017-09-01T01:28:34.774Z,1014.22
2017-09-01T01:29:34.759Z,1014.21
2017-09-01T01:30:34.738Z,1014.2
2017-09-01T01:31:34.718Z,1014.19
2017-09-01T01:32:34.702Z,1014.17
2017-09-01T01:33:34.683Z,1014.21
2017-09-01T01:34:34.663Z,1014.19
2017-09-01T01:35:34.648Z,1014.17
2017-09-01T01:36:34.629Z,1014.17
2017-09-01T01:37:34.610Z,1014.17
2017-09-01T01:38:34.594Z,1014.2
2017-09-01T01:39:34.579Z,1014.19
2017-09-01T01:40:34.570Z,1014.18
2017-09-01T01:41:34.536Z,1014.21
2017-09-01T01:42:34.519Z,1014.21
2017-09-01T01:43:34.510Z,1014.22
2017-09-01T01:44:34.484Z,1014.23
2017-09-01T01:45:34.469Z,1014.21
2017-09-01T01:46:34.449Z,1014.19
2017-09-01T01:47:34.430Z,1014.18
2017-09-01T01:48:34.408Z,1014.19
2017-09-01T01:49:34.389Z,1014.19
2017-09-01T01:50:34.371Z,1014.25
2017-09-01T01:51:34.356Z,1014.21
2017-09-01T01:52:34.335Z,1014.19
2017-09-01T01:53:34.319Z,1014.2
2017-09-01T01:54:34.300Z,1014.21
2017-09-01T01:55:34.280Z,1014.19
2017-09-01T01:56:34.261Z,1014.16
2017-09-01T01:57:34.245Z,1014.14
2017-09-01T01:58:34.229Z,1014.18
2017-09-01T01:59:34.208Z,1014.15
2017-09-01T02:00:34.191Z,1014.14
2017-09-01T02:01:34.172Z,1014.12
2017-09-01T02:02:34.153Z,1014.13
2017-09-01T02:03:34.137Z,1014.12
2017-09-01T02:04:34.120Z,1014.07
2017-09-01T02:05:34.096Z,1014.11
2017-09-01T02:06:34.080Z,1014.1
2017-09-01T02:07:34.068Z,1014.07
2017-09-01T02:08:34.049Z,1014.06
2017-09-01T02:09:34.029Z,1014.03
2017-09-01T02:10:34.008Z,1014.06
2017-09-01T02:11:33.988Z,1013.98
2017-09-01T02:12:33.969Z,1014
2017-09-01T02:13:33.954Z,1013.97
2017-09-01T02:14:33.938Z,1014
2017-09-01T02:15:33.919Z,1014
2017-09-01T02:16:33.899Z,1013.95
2017-09-01T02:17:33.882Z,1013.96
2017-09-01T02:18:33.858Z,1013.95
2017-09-01T02:19:33.849Z,1013.94
2017-09-01T02:20:33.829Z,1013.95
2017-09-01T02:21:33.809Z,1013.96
2017-09-01T02:22:33.785Z,1013.94
2017-09-01T02:23:33.770Z,1013.95
2017-09-01T02:24:33.749Z,1013.97
2017-09-01T02:25:33.736Z,1013.97
2017-09-01T02:26:33.714Z,1014.02
2017-09-01T02:27:33.700Z,1014.01
2017-09-01T02:28:33.682Z,1014.01
2017-09-01T02:29:33.660Z,1014.02
2017-09-01T02:30:33.640Z,1014.04
2017-09-01T02:31:33.624Z,1014.01
2017-09-01T02:32:33.609Z,1014
2017-09-01T02:33:33.589Z,1014
2017-09-01T02:34:33.571Z,1014
2017-09-01T02:35:33.550Z,1014
2017-09-01T02:36:33.541Z,1014.01
2017-09-01T02:37:33.515Z,1014.01
2017-09-01T02:38:33.500Z,1014.02
2017-09-01T02:39:33.479Z,1014.02
2017-09-01T02:40:33.461Z,1014
2017-09-01T02:41:33.448Z,1013.98
2017-09-01T02:42:33.429Z,1013.99
2017-09-01T02:43:33.404Z,1014
2017-09-01T02:44:33.388Z,1014
2017-09-01T02:45:33.371Z,1013.97
2017-09-01T02:46:33.350Z,1013.95
2017-09-01T02:47:33.327Z,1013.9
2017-09-01T02:48:33.314Z,1013.9
2017-09-01T02:49:33.293Z,1013.92
2017-09-01T02:50:33.280Z,1013.89
2017-09-01T02:51:33.259Z,1013.86
2017-09-01T02:52:33.239Z,1013.85
2017-09-01T02:53:33.218Z,1013.89
2017-09-01T02:54:33.210Z,1013.84
2017-09-01T02:55:33.190Z,1013.86
2017-09-01T02:56:33.179Z,1013.86
2017-09-01T02:57:33.150Z,1013.85
2017-09-01T02:58:33.131Z,1013.84
2017-09-01T02:59:33.112Z,1013.84
2017-09-01T03:00:33.097Z,1013.81
2017-09-01T03:01:33.074Z,1013.81
2017-09-01T03:02:33.060Z,1013.76
2017-09-01T03:03:33.039Z,1013.78
2017-09-01T03:04:33.020Z,1013.76
2017-09-01T03:05:32.999Z,1013.76
2017-09-01T03:06:32.983Z,1013.78
2017-09-01T03:07:32.969Z,1013.74
2017-09-01T03:08:32.947Z,1013.75
2017-09-01T03:09:32.925Z,1013.74
2017-09-01T03:10:32.909Z,1013.71
2017-09-01T03:11:32.889Z,1013.7
2017-09-01T03:12:32.878Z,1013.68
2017-09-01T03:13:32.853Z,1013.72
2017-09-01T03:14:32.838Z,1013.72
2017-09-01T03:15:32.822Z,1013.7
2017-09-01T03:16:32.809Z,1013.73
2017-09-01T03:17:32.781Z,1013.7
2017-09-01T03:18:32.762Z,1013.76
2017-09-01T03:19:32.742Z,1013.75
2017-09-01T03:20:32.726Z,1013.74
2017-09-01T03:21:32.708Z,1013.76
2017-09-01T03:22:32.689Z,1013.72
2017-09-01T03:23:32.669Z,1013.74
2017-09-01T03:24:32.659Z,1013.71
2017-09-01T03:25:32.636Z,1013.72
2017-09-01T03:26:32.619Z,1013.72
2017-09-01T03:27:32.598Z,1013.74
2017-09-01T03:28:32.581Z,1013.75
2017-09-01T03:29:32.560Z,1013.8
2017-09-01T03:30:32.542Z,1013.77
2017-09-01T03:31:32.530Z,1013.8
2017-09-01T03:32:32.508Z,1013.77
2017-09-01T03:33:32.490Z,1013.78
2017-09-01T03:34:32.476Z,1013.79
2017-09-01T03:35:32.452Z,1013.75
2017-09-01T03:36:32.433Z,1013.77
2017-09-01T03:37:32.413Z,1013.78
2017-09-01T03:38:32.395Z,1013.76
2017-09-01T03:39:32.380Z,1013.76
2017-09-01T03:40:32.358Z,1013.74
2017-09-01T03:41:32.339Z,1013.74
2017-09-01T03:42:32.319Z,1013.71
2017-09-01T03:43:32.299Z,1013.72
2017-09-01T03:44:32.282Z,1013.7
2017-09-01T03:45:32.271Z,1013.71
2017-09-01T03:46:32.256Z,1013.73
2017-09-01T03:47:32.226Z,1013.71
2017-09-01T03:48:32.207Z,1013.75
2017-09-01T03:49:32.191Z,1013.74
2017-09-01T03:50:32.168Z,1013.76
2017-09-01T03:51:32.152Z,1013.76
2017-09-01T03:52:32.138Z,1013.75
2017-09-01T03:53:32.113Z,1013.76
2017-09-01T03:54:32.098Z,1013.76
2017-09-01T03:55:32.082Z,1013.76
2017-09-01T03:56:32.061Z,1013.75
2017-09-01T03:57:32.040Z,1013.76
2017-09-01T03:58:32.023Z,1013.73
2017-09-01T03:59:32.002Z,1013.74
2017-09-01T04:00:31.984Z,1013.71
2017-09-01T04:01:31.971Z,1013.73
2017-09-01T04:02:31.949Z,1013.73
2017-09-01T04:03:31.939Z,1013.73
2017-09-01T04:04:31.910Z,1013.76
2017-09-01T04:05:31.903Z,1013.76
2017-09-01T04:06:31.878Z,1013.76
2017-09-01T04:07:31.861Z,1013.78
2017-09-01T04:08:31.840Z,1013.79
2017-09-01T04:09:31.818Z,1013.82
2017-09-01T04:10:31.802Z,1013.84
2017-09-01T04:11:31.783Z,1013.83
2017-09-01T04:12:31.769Z,1013.84
2017-09-01T04:13:31.746Z,1013.82
2017-09-01T04:14:31.724Z,1013.85
2017-09-01T04:15:31.708Z,1013.83
2017-09-01T04:16:31.699Z,1013.84
2017-09-01T04:17:31.670Z,1013.85
2017-09-01T04:18:31.649Z,1013.86
2017-09-01T04:19:31.636Z,1013.85
2017-09-01T04:20:31.619Z,1013.86
2017-09-01T04:21:31.594Z,1013.85
2017-09-01T04:22:31.582Z,1013.88
2017-09-01T04:23:31.558Z,1013.86
2017-09-01T04:24:31.539Z,1013.86
2017-09-01T04:25:31.521Z,1013.87
2017-09-01T04:26:31.510Z,1013.86
2017-09-01T04:27:31.485Z,1013.86
2017-09-01T04:28:31.468Z,1013.85
2017-09-01T04:29:31.450Z,1013.87
2017-09-01T04:30:31.431Z,1013.82
2017-09-01T04:31:31.411Z,1013.81
2017-09-01T04:32:31.389Z,1013.82
2017-09-01T04:33:31.371Z,1013.81
2017-09-01T04:34:31.356Z,1013.8
2017-09-01T04:35:31.338Z,1013.81
2017-09-01T04:36:31.317Z,1013.8
2017-09-01T04:37:31.301Z,1013.79
2017-09-01T04:38:31.281Z,1013.81
2017-09-01T04:39:31.260Z,1013.84
2017-09-01T04:40:31.249Z,1013.82
2017-09-01T04:41:31.221Z,1013.81
2017-09-01T04:42:31.210Z,1013.85
2017-09-01T04:43:31.186Z,1013.86
2017-09-01T04:44:31.170Z,1013.85
2017-09-01T04:45:31.150Z,1013.86
2017-09-01T04:46:31.130Z,1013.87
2017-09-01T04:47:31.112Z,1013.88
2017-09-01T04:48:31.100Z,1013.93
2017-09-01T04:49:31.075Z,1013.93
2017-09-01T04:50:31.060Z,1014.01
2017-09-01T04:51:31.038Z,1014.01
2017-09-01T04:52:31.021Z,1014.01
2017-09-01T04:53:31.002Z,1013.98
2017-09-01T04:54:30.981Z,1014.02
2017-09-01T04:55:30.960Z,1014.02
2017-09-01T04:56:30.939Z,1014.08
2017-09-01T04:57:30.919Z,1014.09
2017-09-01T04:58:30.901Z,1014.09
2017-09-01T04:59:30.886Z,1014.09
2017-09-01T05:00:30.869Z,1014.11
2017-09-01T05:01:30.850Z,1014.08
2017-09-01T05:02:30.830Z,1014.11
2017-09-01T05:03:30.808Z,1014.05
2017-09-01T05:04:30.792Z,1014.07
2017-09-01T05:05:30.779Z,1014.04
2017-09-01T05:06:30.758Z,1014.03
2017-09-01T05:07:30.736Z,1014.08
2017-09-01T05:08:30.715Z,1014.06
2017-09-01T05:09:30.700Z,1014.05
2017-09-01T05:10:30.678Z,1014.07
2017-09-01T05:11:30.660Z,1014.08
2017-09-01T05:12:30.639Z,1014.09
2017-09-01T05:13:30.628Z,1014.11
2017-09-01T05:14:30.601Z,1014.13
2017-09-01T05:15:30.584Z,1014.12
2017-09-01T05:16:30.779Z,1014.14
2017-09-01T05:17:30.549Z,1014.11
2017-09-01T05:18:30.528Z,1014.11
2017-09-01T05:19:30.511Z,1014.14
2017-09-01T05:20:30.488Z,1014.12
2017-09-01T05:21:30.483Z,1014.12
2017-09-01T05:22:30.458Z,1014.13
2017-09-01T05:23:30.442Z,1014.11
2017-09-01T05:24:30.419Z,1014.08
2017-09-01T05:25:30.396Z,1014.1
2017-09-01T05:26:30.374Z,1014.1
2017-09-01T05:27:30.358Z,1014.15
2017-09-01T05:28:30.342Z,1014.13
2017-09-01T05:29:30.320Z,1014.12
2017-09-01T05:30:30.304Z,1014.14
2017-09-01T05:31:30.284Z,1014.13
2017-09-01T05:32:30.270Z,1014.15
2017-09-01T05:33:30.251Z,1014.16
2017-09-01T05:34:30.228Z,1014.18
2017-09-01T05:35:30.210Z,1014.19
2017-09-01T05:36:30.187Z,1014.19
2017-09-01T05:37:30.181Z,1014.23
2017-09-01T05:38:30.159Z,1014.21
2017-09-01T05:39:30.131Z,1014.21
2017-09-01T05:40:30.115Z,1014.21
2017-09-01T05:41:30.099Z,1014.28
2017-09-01T05:42:30.074Z,1014.23
2017-09-01T05:43:30.061Z,1014.26
2017-09-01T05:44:30.037Z,1014.23
2017-09-01T05:45:30.020Z,1014.27
2017-09-01T05:46:30.010Z,1014.33
2017-09-01T05:47:29.983Z,1014.36
2017-09-01T05:48:29.965Z,1014.35
2017-09-01T05:49:29.951Z,1014.39
2017-09-01T05:50:29.930Z,1014.45
2017-09-01T05:51:29.910Z,1014.46
2017-09-01T05:52:29.887Z,1014.44
2017-09-01T05:53:29.869Z,1014.47
2017-09-01T05:54:29.850Z,1014.46
2017-09-01T05:55:29.832Z,1014.44
2017-09-01T05:56:29.813Z,1014.45
2017-09-01T05:57:29.794Z,1014.42
2017-09-01T05:58:29.776Z,1014.37
2017-09-01T05:59:29.758Z,1014.34
2017-09-01T06:00:29.737Z,1014.36
2017-09-01T06:01:29.722Z,1014.37
2017-09-01T06:02:29.700Z,1014.36
2017-09-01T06:03:29.681Z,1014.39
2017-09-01T06:04:29.666Z,1014.41
2017-09-01T06:05:29.650Z,1014.42
2017-09-01T06:06:29.624Z,1014.42
2017-09-01T06:07:29.613Z,1014.42
2017-09-01T06:08:29.587Z,1014.4
2017-09-01T06:09:29.570Z,1014.44
2017-09-01T06:10:29.558Z,1014.47
2017-09-01T06:11:29.535Z,1014.47
2017-09-01T06:12:29.515Z,1014.47
2017-09-01T06:13:29.499Z,1014.5
2017-09-01T06:14:29.482Z,1014.52
2017-09-01T06:15:29.462Z,1014.56
2017-09-01T06:16:29.445Z,1014.55
2017-09-01T06:17:29.425Z,1014.56
2017-09-01T06:18:29.456Z,1014.54
2017-09-01T06:19:29.389Z,1014.57
2017-09-01T06:20:29.373Z,1014.58
2017-09-01T06:21:29.353Z,1014.6
2017-09-01T06:22:29.337Z,1014.57
2017-09-01T06:23:29.319Z,1014.59
2017-09-01T06:24:29.308Z,1014.59
2017-09-01T06:25:29.281Z,1014.56
2017-09-01T06:26:29.270Z,1014.56
2017-09-01T06:27:29.251Z,1014.55
2017-09-01T06:28:29.224Z,1014.57
2017-09-01T06:29:29.208Z,1014.59
2017-09-01T06:30:29.189Z,1014.6
2017-09-01T06:31:29.170Z,1014.6
2017-09-01T06:32:29.156Z,1014.59
2017-09-01T06:33:29.138Z,1014.59
2017-09-01T06:34:29.122Z,1014.6
2017-09-01T06:35:29.099Z,1014.58
2017-09-01T06:36:29.098Z,1014.58
2017-09-01T06:37:29.065Z,1014.56
2017-09-01T06:38:29.046Z,1014.54
2017-09-01T06:39:29.029Z,1014.53
2017-09-01T06:40:29.024Z,1014.54
2017-09-01T06:41:28.999Z,1014.57
2017-09-01T06:42:28.974Z,1014.51
2017-09-01T06:43:28.961Z,1014.52
2017-09-01T06:44:28.940Z,1014.5
2017-09-01T06:45:28.921Z,1014.49
2017-09-01T06:46:28.908Z,1014.46
2017-09-01T06:47:28.890Z,1014.43
2017-09-01T06:48:28.871Z,1014.41
2017-09-01T06:49:28.855Z,1014.38
2017-09-01T06:50:28.829Z,1014.42
2017-09-01T06:51:28.820Z,1014.44
2017-09-01T06:52:28.801Z,1014.44
2017-09-01T06:53:28.783Z,1014.45
2017-09-01T06:54:28.765Z,1014.46
2017-09-01T06:55:28.878Z,1014.5
2017-09-01T06:56:28.731Z,1014.54
2017-09-01T06:57:28.708Z,1014.53
2017-09-01T06:58:28.687Z,1014.52
2017-09-01T06:59:28.672Z,1014.49
2017-09-01T07:00:28.660Z,1014.51
2017-09-01T07:01:28.635Z,1014.51
2017-09-01T07:02:28.619Z,1014.56
2017-09-01T07:03:28.614Z,1014.57
2017-09-01T07:04:28.583Z,1014.54
2017-09-01T07:05:28.570Z,1014.56
2017-09-01T07:06:28.551Z,1014.54
2017-09-01T07:07:28.536Z,1014.56
2017-09-01T07:08:28.518Z,1014.59
2017-09-01T07:09:28.618Z,1014.6
2017-09-01T07:10:28.484Z,1014.63
2017-09-01T07:11:28.577Z,1014.66
2017-09-01T07:12:28.449Z,1014.67
2017-09-01T07:13:28.438Z,1014.7
2017-09-01T07:14:28.427Z,1014.67
2017-09-01T07:15:28.411Z,1014.73
2017-09-01T07:16:28.387Z,1014.71
2017-09-01T07:17:28.420Z,1014.72
2017-09-01T07:18:28.351Z,1014.76
2017-09-01T07:19:28.400Z,1014.69
2017-09-01T07:20:28.317Z,1014.78
2017-09-01T07:21:28.309Z,1014.78
2017-09-01T07:22:28.289Z,1014.76
2017-09-01T07:23:28.277Z,1014.79
2017-09-01T07:24:28.261Z,1014.84
2017-09-01T07:25:28.303Z,1014.82
2017-09-01T07:26:28.220Z,1014.83
2017-09-01T07:27:28.209Z,1014.84
2017-09-01T07:28:28.187Z,1014.84
2017-09-01T07:29:28.229Z,1014.83
2017-09-01T07:30:28.155Z,1014.8
2017-09-01T07:31:28.136Z,1014.77
2017-09-01T07:32:28.120Z,1014.75
2017-09-01T07:33:28.158Z,1014.68
2017-09-01T07:34:28.090Z,1014.73
2017-09-01T07:35:28.069Z,1014.75
2017-09-01T07:36:28.058Z,1014.73
2017-09-01T07:37:28.044Z,1014.72
2017-09-01T07:38:28.026Z,1014.76
2017-09-01T07:39:28.010Z,1014.72
2017-09-01T07:40:27.999Z,1014.74
2017-09-01T07:41:27.974Z,1014.78
2017-09-01T07:42:27.958Z,1014.71
2017-09-01T07:43:27.949Z,1014.71
2017-09-01T07:44:27.921Z,1014.72
2017-09-01T07:45:27.907Z,1014.67
2017-09-01T07:46:27.886Z,1014.67
2017-09-01T07:47:27.889Z,1014.71
2017-09-01T07:48:27.865Z,1014.75
2017-09-01T07:49:27.839Z,1014.73
2017-09-01T07:50:27.836Z,1014.75
2017-09-01T07:51:27.808Z,1014.79
2017-09-01T07:52:27.788Z,1014.83
2017-09-01T07:53:27.777Z,1014.82
2017-09-01T07:54:27.759Z,1014.86
2017-09-01T07:55:27.746Z,1014.83
2017-09-01T07:56:27.727Z,1014.83
2017-09-01T07:57:27.706Z,1014.78
2017-09-01T07:58:27.697Z,1014.81
2017-09-01T07:59:27.675Z,1014.82
2017-09-01T08:00:27.663Z,1014.8
2017-09-01T08:01:27.649Z,1014.79
2017-09-01T08:02:27.627Z,1014.84
2017-09-01T08:03:27.609Z,1014.82
2017-09-01T08:04:27.596Z,1014.82
2017-09-01T08:05:27.587Z,1014.8
2017-09-01T08:06:27.565Z,1014.81
2017-09-01T08:07:27.548Z,1014.8
2017-09-01T08:08:27.538Z,1014.82
2017-09-01T08:09:27.519Z,1014.8
2017-09-01T08:10:27.507Z,1014.8
2017-09-01T08:11:27.487Z,1014.78
2017-09-01T08:12:27.477Z,1014.83
2017-09-01T08:13:27.458Z,1014.78
2017-09-01T08:14:27.446Z,1014.81
2017-09-01T08:15:27.424Z,1014.8
2017-09-01T08:16:27.413Z,1014.78
2017-09-01T08:17:27.396Z,1014.78
2017-09-01T08:18:27.438Z,1014.77
2017-09-01T08:19:27.366Z,1014.8
2017-09-01T08:20:27.359Z,1014.84
2017-09-01T08:21:27.339Z,1014.82
2017-09-01T08:22:27.324Z,1014.84
2017-09-01T08:23:27.307Z,1014.84
2017-09-01T08:24:27.302Z,1014.85
2017-09-01T08:25:27.275Z,1014.81
2017-09-01T08:26:27.258Z,1014.79
2017-09-01T08:27:27.245Z,1014.82
2017-09-01T08:28:27.237Z,1014.8
2017-09-01T08:29:27.214Z,1014.8
2017-09-01T08:30:27.207Z,1014.8
2017-09-01T08:31:27.182Z,1014.81
2017-09-01T08:32:27.173Z,1014.79
2017-09-01T08:33:27.151Z,1014.75
2017-09-01T08:34:27.145Z,1014.73
2017-09-01T08:35:27.124Z,1014.73
2017-09-01T08:36:27.123Z,1014.68
2017-09-01T08:37:27.093Z,1014.69
2017-09-01T08:38:27.088Z,1014.71
2017-09-01T08:39:27.065Z,1014.65
2017-09-01T08:40:27.049Z,1014.62
2017-09-01T08:41:27.035Z,1014.59
2017-09-01T08:42:27.027Z,1014.6
2017-09-01T08:43:27.006Z,1014.6
2017-09-01T08:44:26.995Z,1014.57
2017-09-01T08:45:26.975Z,1014.58
2017-09-01T08:46:26.965Z,1014.57
2017-09-01T08:47:26.946Z,1014.59
2017-09-01T08:48:26.935Z,1014.63
2017-09-01T08:49:26.924Z,1014.6
2017-09-01T08:50:26.905Z,1014.56
2017-09-01T08:51:26.892Z,1014.56
2017-09-01T08:52:26.887Z,1014.66
2017-09-01T08:53:26.865Z,1014.63
2017-09-01T08:54:26.855Z,1014.62
2017-09-01T08:55:26.839Z,1014.64
2017-09-01T08:56:26.828Z,1014.65
2017-09-01T08:57:26.826Z,1014.7
2017-09-01T08:58:26.804Z,1014.69
2017-09-01T08:59:26.785Z,1014.73
2017-09-01T09:00:26.775Z,1014.72
2017-09-01T09:01:26.754Z,1014.74
2017-09-01T09:02:26.746Z,1014.73
2017-09-01T09:03:26.726Z,1014.75
2017-09-01T09:04:26.713Z,1014.72
2017-09-01T09:05:26.709Z,1014.77
2017-09-01T09:06:26.685Z,1014.72
2017-09-01T09:07:26.674Z,1014.75
2017-09-01T09:08:26.666Z,1014.76
2017-09-01T09:09:26.642Z,1014.73
2017-09-01T09:10:26.630Z,1014.74
2017-09-01T09:11:26.617Z,1014.72
2017-09-01T09:12:26.608Z,1014.72
2017-09-01T09:13:26.587Z,1014.69
2017-09-01T09:14:26.580Z,1014.69
2017-09-01T09:15:26.557Z,1014.69
2017-09-01T09:16:26.548Z,1014.67
2017-09-01T09:17:26.535Z,1014.71
2017-09-01T09:18:26.519Z,1014.75
2017-09-01T09:19:26.506Z,1014.7
2017-09-01T09:20:26.494Z,1014.71
2017-09-01T09:21:26.474Z,1014.7
2017-09-01T09:22:26.466Z,1014.77
2017-09-01T09:23:26.449Z,1014.79
2017-09-01T09:24:26.433Z,1014.83
2017-09-01T09:25:26.427Z,1014.82
2017-09-01T09:26:26.425Z,1014.84
2017-09-01T09:27:26.389Z,1014.81
2017-09-01T09:28:26.378Z,1014.83
2017-09-01T09:29:26.369Z,1014.82
2017-09-01T09:30:26.350Z,1014.78
2017-09-01T09:31:26.338Z,1014.75
2017-09-01T09:32:26.316Z,1014.77
2017-09-01T09:33:26.306Z,1014.77
2017-09-01T09:34:26.290Z,1014.77
2017-09-01T09:35:26.279Z,1014.75
2017-09-01T09:36:26.267Z,1014.78
2017-09-01T09:37:26.244Z,1014.77
2017-09-01T09:38:26.238Z,1014.77
2017-09-01T09:39:26.217Z,1014.74
2017-09-01T09:40:26.206Z,1014.74
2017-09-01T09:41:26.190Z,1014.75
2017-09-01T09:42:26.180Z,1014.75
2017-09-01T09:43:26.156Z,1014.73
2017-09-01T09:44:26.145Z,1014.73
2017-09-01T09:45:26.130Z,1014.71
2017-09-01T09:46:26.119Z,1014.71
2017-09-01T09:47:26.105Z,1014.69
2017-09-01T09:48:26.087Z,1014.68
2017-09-01T09:49:26.067Z,1014.66
2017-09-01T09:50:26.057Z,1014.68
2017-09-01T09:51:26.046Z,1014.69
2017-09-01T09:52:26.025Z,1014.67
2017-09-01T09:53:26.011Z,1014.7
2017-09-01T09:54:25.999Z,1014.62
2017-09-01T09:55:25.987Z,1014.66
2017-09-01T09:56:25.967Z,1014.6
2017-09-01T09:57:25.957Z,1014.63
2017-09-01T09:58:25.948Z,1014.67
2017-09-01T09:59:25.925Z,1014.58
2017-09-01T10:00:25.918Z,1014.59
2017-09-01T10:01:25.909Z,1014.53
2017-09-01T10:02:25.884Z,1014.52
2017-09-01T10:03:25.878Z,1014.51
2017-09-01T10:04:25.859Z,1014.53
2017-09-01T10:05:25.859Z,1014.52
2017-09-01T10:06:25.836Z,1014.54
2017-09-01T10:07:25.819Z,1014.56
2017-09-01T10:08:25.807Z,1014.52
2017-09-01T10:09:25.798Z,1014.62
2017-09-01T10:10:25.788Z,1014.59
2017-09-01T10:11:25.776Z,1014.62
2017-09-01T10:12:25.757Z,1014.64
2017-09-01T10:13:25.748Z,1014.59
2017-09-01T10:14:25.739Z,1014.61
2017-09-01T10:15:25.727Z,1014.62
2017-09-01T10:16:25.712Z,1014.6
2017-09-01T10:17:25.708Z,1014.58
2017-09-01T10:18:25.692Z,1014.63
2017-09-01T10:19:25.680Z,1014.63
2017-09-01T10:20:25.669Z,1014.57
2017-09-01T10:21:25.658Z,1014.56
2017-09-01T10:22:25.645Z,1014.56
2017-09-01T10:23:25.641Z,1014.51
2017-09-01T10:24:25.643Z,1014.53
2017-09-01T10:25:25.618Z,1014.55
2017-09-01T10:26:25.600Z,1014.53
2017-09-01T10:27:25.591Z,1014.5
2017-09-01T10:28:25.578Z,1014.51
2017-09-01T10:29:25.569Z,1014.5
2017-09-01T10:30:25.580Z,1014.46
2017-09-01T10:31:25.557Z,1014.48
2017-09-01T10:32:25.538Z,1014.47
2017-09-01T10:33:25.521Z,1014.47
2017-09-01T10:34:25.506Z,1014.46
2017-09-01T10:35:25.493Z,1014.47
2017-09-01T10:36:25.486Z,1014.45
2017-09-01T10:37:25.469Z,1014.43
2017-09-01T10:38:25.463Z,1014.41
2017-09-01T10:39:25.448Z,1014.45
2017-09-01T10:40:25.431Z,1014.41
2017-09-01T10:41:25.416Z,1014.42
2017-09-01T10:42:25.400Z,1014.42
2017-09-01T10:43:25.395Z,1014.43
2017-09-01T10:44:25.375Z,1014.45
2017-09-01T10:45:25.419Z,1014.44
2017-09-01T10:46:25.350Z,1014.41
2017-09-01T10:47:25.343Z,1014.42
2017-09-01T10:48:25.331Z,1014.39
2017-09-01T10:49:25.310Z,1014.39
2017-09-01T10:50:25.295Z,1014.36
2017-09-01T10:51:25.329Z,1014.36
2017-09-01T10:52:25.275Z,1014.39
2017-09-01T10:53:25.260Z,1014.4
2017-09-01T10:54:25.242Z,1014.37
2017-09-01T10:55:25.237Z,1014.39
2017-09-01T10:56:25.213Z,1014.4
2017-09-01T10:57:25.229Z,1014.38
2017-09-01T10:58:25.190Z,1014.37
2017-09-01T10:59:25.224Z,1014.36
2017-09-01T11:00:25.159Z,1014.4
2017-09-01T11:01:25.142Z,1014.39
2017-09-01T11:02:25.126Z,1014.35
2017-09-01T11:03:25.167Z,1014.36
2017-09-01T11:04:25.106Z,1014.38
2017-09-01T11:05:25.088Z,1014.38
2017-09-01T11:06:25.071Z,1014.39
2017-09-01T11:07:25.062Z,1014.38
2017-09-01T11:08:25.047Z,1014.36
2017-09-01T11:09:25.036Z,1014.35
2017-09-01T11:10:25.018Z,1014.37
2017-09-01T11:11:25.004Z,1014.36
2017-09-01T11:12:24.991Z,1014.36
2017-09-01T11:13:24.982Z,1014.34
2017-09-01T11:14:24.966Z,1014.36
2017-09-01T11:15:24.949Z,1014.3
2017-09-01T11:16:24.941Z,1014.34
2017-09-01T11:17:24.919Z,1014.34
2017-09-01T11:18:24.907Z,1014.39
2017-09-01T11:19:24.892Z,1014.4
2017-09-01T11:20:24.887Z,1014.39
2017-09-01T11:21:24.870Z,1014.37
2017-09-01T11:22:24.853Z,1014.36
2017-09-01T11:23:24.839Z,1014.31
2017-09-01T11:24:24.830Z,1014.33
2017-09-01T11:25:24.817Z,1014.34
2017-09-01T11:26:24.799Z,1014.3
2017-09-01T11:27:24.786Z,1014.33
2017-09-01T11:28:24.772Z,1014.31
2017-09-01T11:29:24.759Z,1014.32
2017-09-01T11:30:24.748Z,1014.31
2017-09-01T11:31:24.736Z,1014.31
2017-09-01T11:32:24.724Z,1014.28
2017-09-01T11:33:24.711Z,1014.3
2017-09-01T11:34:24.696Z,1014.26
2017-09-01T11:35:24.685Z,1014.25
2017-09-01T11:36:24.674Z,1014.27
2017-09-01T11:37:24.665Z,1014.25
2017-09-01T11:38:24.651Z,1014.29
2017-09-01T11:39:24.640Z,1014.28
2017-09-01T11:40:24.638Z,1014.32
2017-09-01T11:41:24.620Z,1014.25
2017-09-01T11:42:24.609Z,1014.25
2017-09-01T11:43:24.870Z,1014.21
2017-09-01T11:44:24.587Z,1014.23
2017-09-01T11:45:24.580Z,1014.21
2017-09-01T11:46:24.569Z,1014.22
2017-09-01T11:47:24.554Z,1014.26
2017-09-01T11:48:24.550Z,1014.23
2017-09-01T11:49:24.542Z,1014.23
2017-09-01T11:50:24.529Z,1014.19
2017-09-01T11:51:24.516Z,1014.2
2017-09-01T11:52:24.507Z,1014.18
2017-09-01T11:53:24.496Z,1014.17
2017-09-01T11:54:24.493Z,1014.16
2017-09-01T11:55:24.471Z,1014.14
2017-09-01T11:56:24.467Z,1014.19
2017-09-01T11:57:24.453Z,1014.15
2017-09-01T11:58:24.447Z,1014.18
2017-09-01T11:59:24.433Z,1014.13
2017-09-01T12:00:24.425Z,1014.14
2017-09-01T12:01:24.417Z,1014.08
2017-09-01T12:02:24.401Z,1014.08
2017-09-01T12:03:24.396Z,1014.07
2017-09-01T12:04:24.387Z,1014.04
2017-09-01T12:05:24.380Z,1014.01
2017-09-01T12:06:24.368Z,1014.03
2017-09-01T12:07:24.357Z,1014.04
2017-09-01T12:08:24.358Z,1014.02